Time;durP1;ratioP1;P1;durP2;ratioP2;P2;SDS_P1;SDS_P2;PMS_P1;PMS_P2;Temp;Humidity;BMP_temperature;BMP_pressure;BME280_temperature;BME280_humidity;BME280_pressure;Samples;Min_cycle;Max_cycle;Signal;HPM_P1;HPM_P2
2023/04/23 00:00:41;;;;;;;7.72;4.28;;;14.60;83.20;;;;;;7586504;19;20015;-73
2023/04/23 00:03:14;;;;;;;5.53;3.72;;;14.60;82.50;;;;;;7600909;19;20026;-74
2023/04/23 00:05:50;;;;;;;8.98;4.05;;;14.60;83.00;;;;;;7601790;19;20018;-74
2023/04/23 00:08:23;;;;;;;6.32;4.05;;;14.60;84.10;;;;;;7584653;19;20014;-74
2023/04/23 00:10:55;;;;;;;6.57;3.45;;;14.60;83.40;;;;;;7606775;19;20042;-74
2023/04/23 00:13:28;;;;;;;7.35;3.97;;;14.60;83.30;;;;;;7597239;19;20600;-74
2023/04/23 00:16:00;;;;;;;6.35;3.50;;;14.50;83.10;;;;;;7592865;19;20513;-74
2023/04/23 00:18:32;;;;;;;7.28;4.03;;;14.60;82.80;;;;;;7600355;19;20018;-74
2023/04/23 00:21:04;;;;;;;5.15;4.22;;;14.60;83.80;;;;;;7592554;19;20040;-74
2023/04/23 00:23:38;;;;;;;7.57;3.60;;;14.50;83.90;;;;;;7575560;19;20037;-74
2023/04/23 00:26:10;;;;;;;6.80;3.97;;;14.50;84.30;;;;;;7595979;19;20029;-74
2023/04/23 00:28:42;;;;;;;5.70;3.78;;;14.50;84.90;;;;;;7588707;19;20018;-74
2023/04/23 00:31:15;;;;;;;8.30;4.17;;;14.50;84.70;;;;;;7591754;19;20050;-74
2023/04/23 00:33:47;;;;;;;5.82;3.50;;;14.50;85.40;;;;;;7587347;19;20022;-74
2023/04/23 00:36:21;;;;;;;;;;;14.50;86.20;;;;;;7600888;19;20490;-74
2023/04/23 00:38:53;;;;;;;5.22;3.63;;;14.40;86.40;;;;;;7592805;19;19941;-74
2023/04/23 00:41:27;;;;;;;7.80;4.00;;;14.40;87.30;;;;;;7591051;19;20041;-74
2023/04/23 00:44:00;;;;;;;6.35;3.85;;;14.40;87.90;;;;;;7604591;19;20018;-74
2023/04/23 00:46:33;;;;;;;6.53;3.60;;;14.40;89.20;;;;;;7598974;19;20030;-74
2023/04/23 00:49:05;;;;;;;6.17;3.83;;;14.40;87.90;;;;;;7588984;19;20010;-74
2023/04/23 00:51:38;;;;;;;5.00;3.45;;;14.40;88.40;;;;;;7597580;19;20079;-74
2023/04/23 00:54:10;;;;;;;6.75;3.97;;;14.40;90.00;;;;;;7598452;19;20014;-74
2023/04/23 00:56:43;;;;;;;6.07;3.60;;;14.30;90.60;;;;;;7602030;19;20121;-74
2023/04/23 00:59:15;;;;;;;10.77;4.03;;;14.20;91.00;;;;;;7603651;19;20025;-74
2023/04/23 01:01:47;;;;;;;6.25;3.67;;;14.10;91.60;;;;;;7581623;19;20022;-74
2023/04/23 01:04:21;;;;;;;8.07;3.70;;;14.20;92.00;;;;;;7593017;19;20018;-74
2023/04/23 01:06:55;;;;;;;4.03;3.38;;;14.10;92.90;;;;;;7596738;19;20019;-74
2023/04/23 01:09:27;;;;;;;;;;;14.10;92.90;;;;;;7591974;19;20006;-74
2023/04/23 01:12:01;;;;;;;6.13;3.70;;;14.10;94.30;;;;;;7595182;19;20398;-74
2023/04/23 01:14:36;;;;;;;7.32;3.95;;;14.00;95.10;;;;;;7599657;19;20014;-74
2023/04/23 01:17:11;;;;;;;10.77;4.40;;;14.00;96.70;;;;;;7588980;19;20019;-74
2023/04/23 01:19:43;;;;;;;6.90;4.68;;;14.00;97.40;;;;;;7590355;19;20569;-74
2023/04/23 01:22:16;;;;;;;6.83;4.33;;;13.90;98.60;;;;;;7597672;19;20026;-74
2023/04/23 01:24:49;;;;;;;7.93;4.53;;;13.80;98.60;;;;;;7592117;19;20015;-74
2023/04/23 01:27:23;;;;;;;7.95;3.83;;;13.80;99.00;;;;;;7588008;19;20022;-74
2023/04/23 01:29:56;;;;;;;6.05;4.00;;;13.80;99.10;;;;;;7594961;19;20019;-73
2023/04/23 01:32:29;;;;;;;7.30;4.07;;;13.80;99.00;;;;;;7588635;19;20014;-74
2023/04/23 01:35:03;;;;;;;7.47;3.90;;;13.70;98.90;;;;;;7596468;19;21419;-74
2023/04/23 01:37:38;;;;;;;5.28;4.18;;;13.70;99.50;;;;;;7591260;19;20057;-74
2023/04/23 01:40:10;;;;;;;6.65;3.80;;;13.90;97.60;;;;;;7596378;19;20020;-73
2023/04/23 01:42:42;;;;;;;8.05;4.38;;;13.90;97.00;;;;;;7601498;19;20018;-73
2023/04/23 01:45:16;;;;;;;4.95;3.72;;;14.00;96.60;;;;;;7595908;19;20018;-73
2023/04/23 01:47:49;;;;;;;6.93;3.92;;;14.00;97.00;;;;;;7590746;19;22178;-73
2023/04/23 01:50:23;;;;;;;5.75;4.05;;;13.90;98.60;;;;;;7596816;19;20327;-73
2023/04/23 01:52:56;;;;;;;6.32;4.05;;;13.70;99.30;;;;;;7589073;19;20562;-73
2023/04/23 01:55:28;;;;;;;5.70;3.42;;;13.60;99.00;;;;;;7589976;19;20018;-74
2023/04/23 01:58:00;;;;;;;6.13;3.55;;;13.60;98.90;;;;;;7585435;19;20020;-74
2023/04/23 02:00:33;;;;;;;5.72;3.83;;;13.70;97.80;;;;;;7575096;19;20023;-74
2023/04/23 02:03:05;;;;;;;6.40;4.13;;;13.70;97.70;;;;;;7589716;19;20198;-74
2023/04/23 02:05:40;;;;;;;7.63;3.90;;;13.70;98.40;;;;;;7592088;19;20042;-74
2023/04/23 02:08:12;;;;;;;6.10;3.50;;;13.70;99.60;;;;;;7590189;19;20686;-74
2023/04/23 02:10:44;;;;;;;8.57;3.88;;;13.60;99.80;;;;;;7585096;19;20014;-74
2023/04/23 02:13:17;;;;;;;6.60;3.92;;;13.60;99.90;;;;;;7596452;19;20030;-74
2023/04/23 02:15:49;;;;;;;5.38;3.65;;;13.60;99.90;;;;;;7599208;19;20160;-74
2023/04/23 02:18:21;;;;;;;7.70;3.70;;;13.50;99.90;;;;;;7593429;19;20021;-74
2023/04/23 02:20:55;;;;;;;4.93;3.70;;;13.40;99.90;;;;;;7593149;19;21548;-74
2023/04/23 02:23:27;;;;;;;5.55;4.22;;;13.40;99.90;;;;;;7586886;19;20015;-74
2023/04/23 02:26:00;;;;;;;6.35;3.95;;;13.40;99.90;;;;;;7599251;19;20662;-73
2023/04/23 02:28:32;;;;;;;6.78;4.00;;;13.40;99.90;;;;;;7588911;19;20022;-73
2023/04/23 02:31:05;;;;;;;9.98;3.85;;;13.40;99.90;;;;;;7592778;19;20569;-73
2023/04/23 02:33:37;;;;;;;5.40;3.85;;;13.40;99.90;;;;;;7591946;19;20018;-74
2023/04/23 02:36:11;;;;;;;5.47;4.33;;;13.30;99.90;;;;;;7588064;19;20010;-74
2023/04/23 02:38:44;;;;;;;11.02;4.32;;;13.40;99.90;;;;;;7594438;19;20030;-73
2023/04/23 02:41:16;;;;;;;7.95;4.47;;;13.40;99.90;;;;;;7598779;19;20018;-73
2023/04/23 02:43:49;;;;;;;7.30;4.25;;;13.40;99.90;;;;;;7582672;19;20014;-75
2023/04/23 02:46:21;;;;;;;7.57;4.57;;;13.30;99.90;;;;;;7586451;19;20020;-73
2023/04/23 02:48:53;;;;;;;8.10;4.25;;;13.30;99.90;;;;;;7581956;19;20018;-73
2023/04/23 02:51:26;;;;;;;5.20;3.95;;;13.20;99.90;;;;;;7592936;19;20034;-73
2023/04/23 02:53:58;;;;;;;8.90;4.40;;;13.20;99.90;;;;;;7570893;19;20240;-74
2023/04/23 02:56:30;;;;;;;8.20;4.43;;;13.10;99.90;;;;;;7589522;19;20191;-73
2023/04/23 02:59:03;;;;;;;13.20;4.85;;;13.00;99.90;;;;;;7579843;19;20010;-73
2023/04/23 03:01:35;;;;;;;6.93;4.45;;;12.90;99.90;;;;;;7590091;19;20018;-74
2023/04/23 03:04:09;;;;;;;6.28;4.30;;;12.80;99.90;;;;;;7591474;19;20018;-74
2023/04/23 03:06:42;;;;;;;5.80;4.38;;;12.80;99.90;;;;;;7596104;19;20550;-73
2023/04/23 03:09:14;;;;;;;8.07;4.83;;;12.70;99.90;;;;;;7582082;19;20689;-73
2023/04/23 03:11:47;;;;;;;6.45;4.28;;;12.70;99.90;;;;;;7593881;19;20922;-73
2023/04/23 03:14:19;;;;;;;8.70;5.07;;;12.70;99.90;;;;;;7592046;19;20056;-73
2023/04/23 03:16:51;;;;;;;9.93;4.47;;;12.80;99.90;;;;;;7564282;19;21290;-73
2023/04/23 03:19:23;;;;;;;10.25;5.20;;;12.80;99.90;;;;;;7586596;19;20025;-73
2023/04/23 03:21:56;;;;;;;7.88;5.00;;;12.90;99.90;;;;;;7577002;19;20455;-74
2023/04/23 03:24:30;;;;;;;10.18;5.30;;;12.90;99.90;;;;;;7587255;19;20070;-73
2023/04/23 03:27:03;;;;;;;6.60;5.05;;;12.90;99.90;;;;;;7588014;19;20015;-74
2023/04/23 03:29:36;;;;;;;5.80;4.65;;;12.80;99.90;;;;;;7582256;19;20341;-74
2023/04/23 03:32:09;;;;;;;6.22;4.68;;;12.90;99.90;;;;;;7592817;19;20015;-74
2023/04/23 03:34:41;;;;;;;6.00;4.43;;;12.90;99.90;;;;;;7578509;19;20021;-73
2023/04/23 03:37:13;;;;;;;6.82;4.70;;;12.80;99.90;;;;;;7577623;19;20619;-73
2023/04/23 03:39:46;;;;;;;5.65;4.40;;;12.80;99.90;;;;;;7579046;19;20137;-73
2023/04/23 03:42:19;;;;;;;8.13;4.90;;;12.80;99.90;;;;;;7585762;19;20704;-73
2023/04/23 03:44:52;;;;;;;6.45;4.38;;;12.80;99.90;;;;;;7591481;19;20603;-72
2023/04/23 03:47:24;;;;;;;7.20;4.72;;;12.70;99.90;;;;;;7586886;19;20329;-73
2023/04/23 03:49:57;;;;;;;6.13;4.90;;;12.90;99.90;;;;;;7581678;19;20010;-73
2023/04/23 03:52:30;;;;;;;6.63;5.00;;;12.90;99.90;;;;;;7576654;19;20279;-73
2023/04/23 03:55:02;;;;;;;5.68;4.30;;;12.80;99.90;;;;;;7592458;19;20031;-73
2023/04/23 03:57:41;;;;;;;6.63;4.53;;;12.80;99.90;;;;;;7605011;19;20109;-72
2023/04/23 04:00:30;;;;;;;7.38;4.70;;;12.80;99.90;;;;;;7593302;19;20035;-73
2023/04/23 04:03:03;;;;;;;10.00;5.50;;;12.80;99.90;;;;;;7582565;19;20026;-73
2023/04/23 04:05:35;;;;;;;8.80;4.97;;;12.80;99.90;;;;;;7587489;19;20015;-72
2023/04/23 04:08:08;;;;;;;7.72;4.75;;;12.80;99.90;;;;;;7602985;19;20022;-73
2023/04/23 04:10:41;;;;;;;6.78;4.63;;;12.90;99.90;;;;;;7584293;19;20006;-73
2023/04/23 04:13:14;;;;;;;8.98;4.75;;;12.90;99.90;;;;;;7595036;19;20019;-73
2023/04/23 04:15:47;;;;;;;5.63;4.13;;;12.80;99.90;;;;;;7602661;19;20399;-73
2023/04/23 04:18:19;;;;;;;5.75;4.65;;;12.80;99.90;;;;;;7609343;19;20014;-73
2023/04/23 04:20:52;;;;;;;6.40;4.60;;;12.90;99.90;;;;;;7602695;19;20014;-74
2023/04/23 04:23:24;;;;;;;6.18;4.57;;;12.80;99.90;;;;;;7582374;19;20022;-73
2023/04/23 04:25:58;;;;;;;5.90;4.18;;;12.80;99.90;;;;;;7594244;19;21031;-73
2023/04/23 04:28:35;;;;;;;7.50;4.68;;;12.80;99.90;;;;;;7605435;19;20018;-73
2023/04/23 04:31:09;;;;;;;6.75;4.57;;;12.80;99.90;;;;;;7596497;19;20021;-73
2023/04/23 04:33:42;;;;;;;6.03;3.97;;;12.80;99.90;;;;;;7588749;19;20024;-74
2023/04/23 04:36:14;;;;;;;7.40;4.03;;;12.80;99.90;;;;;;7597667;19;20018;-74
2023/04/23 04:38:46;;;;;;;6.72;4.07;;;12.80;99.90;;;;;;7601129;19;20612;-73
2023/04/23 04:41:20;;;;;;;5.63;4.15;;;12.80;99.90;;;;;;7595457;19;20022;-73
2023/04/23 04:43:53;;;;;;;12.43;4.88;;;12.90;99.90;;;;;;7601411;19;20029;-73
2023/04/23 04:46:27;;;;;;;5.85;4.30;;;13.00;99.90;;;;;;7605698;19;20010;-73
2023/04/23 04:49:00;;;;;;;7.97;4.25;;;12.90;99.90;;;;;;7587103;19;20018;-74
2023/04/23 04:51:32;;;;;;;11.13;5.05;;;12.90;99.90;;;;;;7583745;19;20014;-74
2023/04/23 04:54:05;;;;;;;8.45;4.60;;;12.90;99.90;;;;;;7585409;19;20022;-73
2023/04/23 04:56:37;;;;;;;6.18;4.32;;;12.90;99.90;;;;;;7596062;19;20014;-72
2023/04/23 04:59:09;;;;;;;6.75;5.07;;;12.90;99.90;;;;;;7598163;19;20490;-73
2023/04/23 05:01:43;;;;;;;10.32;5.50;;;12.80;99.90;;;;;;7583599;19;20070;-72
2023/04/23 05:04:15;;;;;;;7.88;4.68;;;12.70;99.90;;;;;;7596241;19;20024;-74
2023/04/23 05:06:47;;;;;;;8.35;5.43;;;12.60;99.90;;;;;;7581453;19;20077;-75
2023/04/23 05:09:19;;;;;;;6.78;5.57;;;12.60;99.90;;;;;;7594678;19;22253;-73
2023/04/23 05:11:52;;;;;;;8.43;5.35;;;12.50;99.90;;;;;;7595194;19;20018;-72
2023/04/23 05:14:25;;;;;;;8.48;5.72;;;12.40;99.90;;;;;;7586719;19;21088;-72
2023/04/23 05:16:57;;;;;;;7.88;5.65;;;12.30;99.90;;;;;;7584949;19;20478;-73
2023/04/23 05:19:31;;;;;;;7.53;5.70;;;12.20;99.90;;;;;;7572589;19;20032;-72
2023/04/23 05:22:03;;;;;;;9.30;5.88;;;12.30;99.90;;;;;;7580110;19;20645;-73
2023/04/23 05:24:35;;;;;;;9.50;5.50;;;12.30;99.90;;;;;;7588816;19;20022;-73
2023/04/23 05:27:08;;;;;;;8.32;5.75;;;12.30;99.90;;;;;;7593485;19;20018;-73
2023/04/23 05:29:41;;;;;;;10.00;5.88;;;12.30;99.90;;;;;;7579547;19;20082;-73
2023/04/23 05:32:13;;;;;;;8.88;5.75;;;12.30;99.90;;;;;;7570881;19;20010;-73
2023/04/23 05:34:46;;;;;;;11.88;5.57;;;12.40;99.90;;;;;;7565820;19;20014;-72
2023/04/23 05:37:18;;;;;;;10.50;6.27;;;12.40;99.90;;;;;;7566477;19;20014;-74
2023/04/23 05:39:50;;;;;;;8.30;6.22;;;12.50;99.90;;;;;;7564312;19;20019;-73
2023/04/23 05:42:23;;;;;;;8.73;5.88;;;12.40;99.90;;;;;;7563560;19;20018;-73
2023/04/23 05:44:55;;;;;;;8.60;6.50;;;12.50;99.90;;;;;;7573267;19;20762;-73
2023/04/23 05:47:28;;;;;;;11.15;7.25;;;12.40;99.90;;;;;;7560009;19;20018;-73
2023/04/23 05:50:01;;;;;;;11.77;6.30;;;12.30;99.90;;;;;;7555586;19;20006;-73
2023/04/23 05:52:36;;;;;;;8.90;5.82;;;12.40;99.90;;;;;;7564271;19;21007;-73
2023/04/23 05:55:09;;;;;;;10.45;6.88;;;12.40;99.90;;;;;;7580521;19;20019;-73
2023/04/23 05:57:41;;;;;;;9.15;6.10;;;12.50;99.90;;;;;;7573312;19;20138;-72
2023/04/23 06:00:15;;;;;;;9.10;6.53;;;12.40;99.90;;;;;;7576230;19;20018;-72
2023/04/23 06:02:48;;;;;;;9.93;6.40;;;12.50;99.90;;;;;;7572224;19;20370;-72
2023/04/23 06:05:20;;;;;;;8.73;6.10;;;12.50;99.90;;;;;;7587553;19;20018;-72
2023/04/23 06:07:53;;;;;;;10.65;6.70;;;12.60;99.90;;;;;;7576611;19;20022;-73
2023/04/23 06:10:25;;;;;;;10.32;6.20;;;12.60;99.90;;;;;;7583256;19;20048;-73
2023/04/23 06:12:58;;;;;;;9.40;6.50;;;12.60;99.90;;;;;;7567275;19;20125;-73
2023/04/23 06:15:30;;;;;;;9.57;6.45;;;12.60;99.90;;;;;;7575784;19;20011;-73
2023/04/23 06:18:02;;;;;;;8.90;6.68;;;12.50;99.90;;;;;;7587151;19;20954;-72
2023/04/23 06:20:35;;;;;;;11.05;7.30;;;12.50;99.90;;;;;;7588868;19;21244;-71
2023/04/23 06:23:07;;;;;;;10.18;6.70;;;12.50;99.90;;;;;;7536497;19;20015;-72
2023/04/23 06:25:39;;;;;;;9.68;6.57;;;12.40;99.90;;;;;;7547687;19;20014;-74
2023/04/23 06:28:12;;;;;;;10.55;7.15;;;12.40;99.90;;;;;;7571614;19;20055;-72
2023/04/23 06:31:08;;;;;;;13.30;6.43;;;12.30;99.90;;;;;;7576522;19;20134;-72
2023/04/23 06:33:41;;;;;;;10.23;7.30;;;12.30;99.90;;;;;;7600861;19;20154;-72
2023/04/23 06:36:13;;;;;;;12.30;7.55;;;12.30;99.90;;;;;;7578882;19;20030;-72
2023/04/23 06:38:45;;;;;;;11.57;7.25;;;12.30;99.90;;;;;;7565146;19;20017;-70
2023/04/23 06:41:18;;;;;;;14.02;7.85;;;12.30;99.90;;;;;;7566119;19;20126;-73
2023/04/23 06:43:50;;;;;;;11.95;7.78;;;12.30;99.90;;;;;;7591997;19;20018;-73
2023/04/23 06:46:32;;;;;;;12.82;8.13;;;12.20;99.90;;;;;;7591281;19;20018;-72
2023/04/23 06:49:04;;;;;;;12.45;8.00;;;12.10;99.90;;;;;;7579326;19;20682;-70
2023/04/23 06:51:37;;;;;;;15.27;8.32;;;12.20;99.90;;;;;;7569839;19;20581;-71
2023/04/23 06:54:09;;;;;;;12.43;7.35;;;12.20;99.90;;;;;;7554690;19;21571;-70
2023/04/23 06:56:41;;;;;;;17.40;8.05;;;12.30;99.90;;;;;;7561023;19;20007;-72
2023/04/23 06:59:13;;;;;;;10.20;7.20;;;12.10;99.90;;;;;;7564582;19;20014;-71
2023/04/23 07:01:50;;;;;;;14.60;8.63;;;12.00;99.90;;;;;;7573517;19;20018;-71
2023/04/23 07:04:22;;;;;;;12.65;7.70;;;12.00;99.90;;;;;;7538866;19;20021;-72
2023/04/23 07:06:54;;;;;;;13.75;8.88;;;12.00;99.90;;;;;;7564231;19;20482;-72
2023/04/23 07:09:27;;;;;;;17.13;8.90;;;12.00;99.90;;;;;;7569703;19;20018;-72
2023/04/23 07:12:01;;;;;;;10.70;7.30;;;12.00;99.90;;;;;;7548670;19;20062;-72
2023/04/23 07:14:33;;;;;;;12.18;7.97;;;12.00;99.90;;;;;;7540455;19;20025;-72
2023/04/23 07:17:05;;;;;;;11.77;7.15;;;12.00;99.90;;;;;;7552369;19;20019;-72
2023/04/23 07:19:38;;;;;;;11.88;7.63;;;12.00;99.90;;;;;;7551193;19;20905;-72
2023/04/23 07:22:10;;;;;;;14.60;8.93;;;12.10;99.90;;;;;;7492693;19;20025;-71
2023/04/23 07:24:42;;;;;;;9.85;6.97;;;12.00;99.90;;;;;;7534473;19;20085;-72
2023/04/23 07:27:15;;;;;;;7.47;5.38;;;12.10;99.90;;;;;;7554774;19;20052;-73
2023/04/23 07:29:47;;;;;;;8.57;6.05;;;12.10;99.90;;;;;;7582836;19;21126;-73
2023/04/23 07:32:22;;;;;;;8.07;5.97;;;12.20;99.90;;;;;;7536426;19;20024;-72
2023/04/23 07:34:55;;;;;;;8.27;6.03;;;12.20;99.90;;;;;;7568178;19;20612;-72
2023/04/23 07:37:27;;;;;;;10.32;6.50;;;12.30;99.90;;;;;;7525931;19;21130;-72
2023/04/23 07:40:01;;;;;;;10.88;7.28;;;12.50;99.90;;;;;;7502014;19;20019;-72
2023/04/23 07:42:33;;;;;;;;;;;12.50;99.90;;;;;;7561031;19;20018;-72
2023/04/23 07:45:06;;;;;;;11.77;7.82;;;12.40;99.90;;;;;;7574206;19;19919;-73
2023/04/23 07:47:38;;;;;;;14.93;8.57;;;12.30;99.90;;;;;;7568410;19;20042;-72
2023/04/23 07:50:10;;;;;;;9.27;6.70;;;12.30;99.90;;;;;;7562511;19;20279;-72
2023/04/23 07:52:43;;;;;;;9.77;7.18;;;12.30;99.90;;;;;;7562534;19;20638;-73
2023/04/23 07:55:15;;;;;;;10.43;7.63;;;12.40;99.90;;;;;;7507264;19;20833;-73
2023/04/23 07:57:48;;;;;;;8.05;6.68;;;12.40;99.90;;;;;;7490563;19;20018;-72
2023/04/23 08:00:20;;;;;;;10.93;7.30;;;12.40;99.90;;;;;;7542947;19;20018;-73
2023/04/23 08:02:53;;;;;;;9.70;6.60;;;12.30;99.90;;;;;;7566142;19;20052;-72
2023/04/23 08:05:25;;;;;;;11.10;6.78;;;12.30;99.90;;;;;;7555399;19;20011;-72
2023/04/23 08:07:57;;;;;;;12.05;6.63;;;12.20;99.90;;;;;;7538379;19;20565;-71
2023/04/23 08:10:30;;;;;;;10.75;7.50;;;12.20;99.90;;;;;;7564372;19;20023;-71
2023/04/23 08:13:03;;;;;;;11.50;6.97;;;12.20;99.90;;;;;;7574286;19;20040;-71
2023/04/23 08:15:35;;;;;;;8.23;6.13;;;12.20;99.90;;;;;;7577700;19;20026;-72
2023/04/23 08:18:07;;;;;;;9.68;6.68;;;12.20;99.90;;;;;;7557881;19;20067;-71
2023/04/23 08:20:40;;;;;;;9.48;6.68;;;12.20;99.90;;;;;;7576295;19;20019;-74
2023/04/23 08:23:12;;;;;;;13.85;7.57;;;12.20;99.90;;;;;;7591746;19;20762;-71
2023/04/23 08:25:44;;;;;;;10.40;6.72;;;12.20;99.90;;;;;;7581324;19;20033;-73
2023/04/23 08:28:18;;;;;;;13.73;6.13;;;12.30;99.90;;;;;;7544866;19;20033;-71
2023/04/23 08:30:50;;;;;;;8.65;5.88;;;12.40;99.90;;;;;;7582123;19;21094;-72
2023/04/23 08:33:23;;;;;;;10.80;6.63;;;12.50;99.90;;;;;;7569411;19;20014;-72
2023/04/23 08:35:55;;;;;;;8.90;6.25;;;12.60;99.90;;;;;;7558984;19;20111;-71
2023/04/23 08:38:30;;;;;;;10.90;5.90;;;12.70;99.90;;;;;;7554356;19;21261;-72
2023/04/23 08:41:05;;;;;;;6.88;5.30;;;12.90;99.90;;;;;;7590197;19;20378;-71
2023/04/23 08:43:45;;;;;;;7.82;5.57;;;12.90;99.90;;;;;;7601590;19;20018;-73
2023/04/23 08:46:18;;;;;;;7.80;6.03;;;13.00;99.90;;;;;;7534743;19;20025;-72
2023/04/23 08:48:52;;;;;;;9.30;5.53;;;13.20;99.90;;;;;;7558671;19;20107;-76
2023/04/23 08:51:24;;;;;;;;;;;13.50;99.90;;;;;;7541379;19;20294;-75
2023/04/23 08:53:58;;;;;;;7.20;5.63;;;13.60;99.90;;;;;;7561910;19;19928;-74
2023/04/23 08:56:31;;;;;;;8.43;5.60;;;13.40;99.90;;;;;;7565398;19;20829;-74
2023/04/23 08:59:05;;;;;;;7.22;4.45;;;13.50;99.90;;;;;;7551126;19;21524;-74
2023/04/23 09:01:37;;;;;;;;;;;13.60;99.90;;;;;;7542773;19;20940;-74
2023/04/23 09:04:10;;;;;;;5.78;4.03;;;13.60;99.90;;;;;;7562728;19;19930;-75
2023/04/23 09:06:43;;;;;;;4.78;4.22;;;13.60;99.90;;;;;;7554067;19;20055;-74
2023/04/23 09:09:18;;;;;;;6.20;4.53;;;13.50;99.90;;;;;;7550261;19;20109;-75
2023/04/23 09:11:51;;;;;;;8.80;5.10;;;13.40;99.90;;;;;;7573778;19;20018;-75
2023/04/23 09:14:26;;;;;;;6.88;3.83;;;13.40;99.90;;;;;;7552156;19;20030;-74
2023/04/23 09:16:58;;;;;;;4.10;3.58;;;13.50;99.90;;;;;;7528638;19;20022;-74
2023/04/23 09:19:31;;;;;;;7.67;4.40;;;13.40;99.90;;;;;;7559989;19;20027;-74
2023/04/23 09:22:03;;;;;;;5.22;4.15;;;13.50;99.90;;;;;;7538580;19;21002;-74
2023/04/23 09:24:35;;;;;;;6.78;4.75;;;13.60;99.90;;;;;;7534546;19;20026;-76
2023/04/23 09:27:08;;;;;;;8.18;4.70;;;13.60;99.90;;;;;;7551161;19;20055;-74
2023/04/23 09:29:43;;;;;;;7.17;4.53;;;13.60;99.90;;;;;;7566433;19;20022;-74
2023/04/23 09:32:16;;;;;;;15.10;7.15;;;13.70;99.90;;;;;;7550854;19;21239;-73
2023/04/23 09:34:55;;;;;;;8.60;5.88;;;13.80;99.90;;;;;;7545374;19;20098;-72
2023/04/23 09:37:28;;;;;;;6.07;4.95;;;14.00;99.90;;;;;;7563582;19;20023;-73
2023/04/23 09:40:03;;;;;;;8.27;4.38;;;14.10;99.90;;;;;;7542047;19;20134;-78
2023/04/23 09:42:36;;;;;;;6.82;4.10;;;14.20;99.90;;;;;;7570973;19;20014;-77
2023/04/23 09:45:11;;;;;;;8.73;4.45;;;14.20;99.90;;;;;;7546980;19;20098;-76
2023/04/23 09:47:55;;;;;;;5.90;4.30;;;14.30;99.90;;;;;;7573376;19;20019;-76
2023/04/23 09:50:30;;;;;;;;;;;14.40;99.90;;;;;;7552422;19;20022;-76
2023/04/23 09:53:06;;;;;;;4.78;4.15;;;14.30;99.90;;;;;;7557831;19;19926;-76
2023/04/23 09:55:41;;;;;;;6.18;4.43;;;14.30;99.90;;;;;;7573005;19;20035;-77
2023/04/23 09:58:14;;;;;;;5.88;4.32;;;14.40;99.90;;;;;;7595222;19;20053;-77
2023/04/23 10:00:47;;;;;;;6.35;4.30;;;14.50;99.90;;;;;;7597187;19;20030;-77
2023/04/23 10:03:26;;;;;;;10.27;5.00;;;14.60;99.90;;;;;;7575556;19;20018;-76
2023/04/23 10:05:58;;;;;;;6.97;5.05;;;14.80;99.90;;;;;;7579577;19;20022;-77
2023/04/23 10:08:34;;;;;;;8.77;5.20;;;14.90;99.90;;;;;;7579237;19;20094;-77
2023/04/23 10:11:07;;;;;;;6.18;5.00;;;14.80;99.90;;;;;;7593834;19;20010;-78
2023/04/23 10:13:52;;;;;;;5.65;4.47;;;14.80;99.90;;;;;;7568777;19;20010;-77
2023/04/23 10:16:25;;;;;;;4.75;4.18;;;14.70;99.90;;;;;;7570213;19;20019;-77
2023/04/23 10:19:14;;;;;;;4.57;3.75;;;14.60;99.90;;;;;;7541841;19;20014;-77
2023/04/23 10:21:54;;;;;;;7.78;5.35;;;14.50;99.90;;;;;;7566342;19;20023;-78
2023/04/23 10:24:40;;;;;;;5.90;4.45;;;14.40;99.90;;;;;;7579377;19;20018;-77
2023/04/23 10:27:14;;;;;;;6.35;4.88;;;14.50;99.90;;;;;;7566914;19;20010;-75
2023/04/23 10:30:09;;;;;;;5.88;4.82;;;14.70;99.90;;;;;;7557904;19;21587;-75
2023/04/23 10:32:43;;;;;;;9.10;5.00;;;15.00;99.90;;;;;;7527183;19;20018;-77
2023/04/23 10:35:16;;;;;;;7.78;5.03;;;15.10;99.90;;;;;;7509165;19;20014;-75
2023/04/23 10:37:49;;;;;;;5.30;4.10;;;15.30;99.90;;;;;;7567057;19;20010;-75
2023/04/23 10:40:29;;;;;;;6.03;5.07;;;15.50;99.90;;;;;;7554070;19;20976;-75
2023/04/23 10:43:01;;;;;;;7.50;5.10;;;15.50;99.90;;;;;;7538531;19;20022;-75
2023/04/23 10:45:33;;;;;;;5.80;4.78;;;15.60;99.90;;;;;;7579188;19;20065;-77
2023/04/23 10:48:07;;;;;;;6.45;5.07;;;15.60;99.90;;;;;;7545077;19;20540;-75
2023/04/23 10:50:43;;;;;;;11.55;6.05;;;15.50;99.90;;;;;;7548006;19;20052;-76
2023/04/23 10:53:35;;;;;;;6.35;4.28;;;15.60;99.90;;;;;;7542784;19;20471;-78
2023/04/23 10:56:09;;;;;;;23.30;12.57;;;15.80;99.90;;;;;;7544626;19;20019;-78
2023/04/23 10:58:50;;;;;;;6.13;4.20;;;16.00;99.90;;;;;;7550921;19;20094;-76
2023/04/23 11:01:28;;;;;;;5.78;4.20;;;16.40;99.90;;;;;;7542295;19;21145;-76
2023/04/23 11:04:22;;;;;;;9.45;5.03;;;16.60;99.90;;;;;;7559250;19;20992;-76
2023/04/23 11:07:04;;;;;;;4.15;3.38;;;16.70;99.90;;;;;;7528039;19;20103;-75
2023/04/23 11:09:45;;;;;;;4.47;3.67;;;16.80;99.90;;;;;;7529757;19;20014;-77
2023/04/23 11:12:23;;;;;;;5.28;3.15;;;17.30;99.90;;;;;;7545425;19;20485;-76
2023/04/23 11:15:00;;;;;;;6.68;2.90;;;17.70;99.90;;;;;;7566669;19;20015;-78
2023/04/23 11:17:32;;;;;;;3.72;2.88;;;17.80;98.40;;;;;;7559488;19;20007;-79
2023/04/23 11:20:13;;;;;;;4.00;2.70;;;18.10;97.00;;;;;;7562575;19;20018;-77
2023/04/23 11:22:47;;;;;;;4.75;2.58;;;18.50;96.60;;;;;;7566460;19;20050;-77
2023/04/23 11:25:25;;;;;;;2.97;2.47;;;18.50;93.90;;;;;;7570141;19;20018;-77
2023/04/23 11:27:57;;;;;;;4.00;2.63;;;18.30;94.40;;;;;;7545770;19;20021;-77
2023/04/23 11:30:30;;;;;;;4.38;2.55;;;18.10;92.90;;;;;;7573602;19;20022;-79
2023/04/23 11:33:04;;;;;;;3.13;2.57;;;18.10;93.30;;;;;;7556756;19;20885;-79
2023/04/23 11:35:39;;;;;;;4.43;2.67;;;18.00;94.70;;;;;;7598535;19;20641;-78
2023/04/23 11:38:12;;;;;;;3.42;2.70;;;17.90;96.40;;;;;;7587237;19;20565;-79
2023/04/23 11:40:47;;;;;;;8.68;7.00;;;17.70;94.90;;;;;;7566843;19;20018;-78
2023/04/23 11:43:20;;;;;;;3.53;2.90;;;17.60;96.00;;;;;;7570069;19;20022;-79
2023/04/23 11:45:55;;;;;;;3.20;2.50;;;17.60;96.00;;;;;;7571981;19;20023;-79
2023/04/23 11:48:27;;;;;;;6.45;2.97;;;17.60;95.40;;;;;;7594310;19;20029;-80
2023/04/23 11:50:59;;;;;;;3.50;2.40;;;17.70;95.00;;;;;;7564893;19;20617;-78
2023/04/23 11:53:32;;;;;;;3.67;2.15;;;17.60;96.00;;;;;;7587095;19;20026;-78
2023/04/23 11:56:05;;;;;;;3.95;2.75;;;17.60;95.00;;;;;;7587726;19;20024;-78
2023/04/23 11:58:37;;;;;;;4.10;2.70;;;17.60;95.20;;;;;;7596652;19;21483;-79
2023/04/23 12:01:12;;;;;;;5.22;3.28;;;17.60;94.90;;;;;;7581881;19;20592;-78
2023/04/23 12:03:47;;;;;;;4.78;2.90;;;17.60;93.30;;;;;;7583570;19;20015;-79
2023/04/23 12:06:20;;;;;;;7.97;3.00;;;17.50;95.50;;;;;;7582173;19;20024;-79
2023/04/23 12:08:52;;;;;;;3.70;2.58;;;17.30;94.20;;;;;;7589432;19;20090;-80
2023/04/23 12:11:25;;;;;;;6.65;3.50;;;17.40;94.90;;;;;;7580130;19;20031;-79
2023/04/23 12:13:57;;;;;;;4.53;2.80;;;17.50;95.20;;;;;;7567977;19;20749;-79
2023/04/23 12:16:33;;;;;;;5.05;3.28;;;17.50;95.90;;;;;;7564979;19;20078;-78
2023/04/23 12:19:13;;;;;;;5.47;3.40;;;17.60;92.90;;;;;;7563121;19;20033;-79
2023/04/23 12:21:53;;;;;;;4.57;3.38;;;17.50;92.40;;;;;;7573908;19;20015;-78
2023/04/23 12:24:28;;;;;;;4.35;2.97;;;17.70;93.70;;;;;;7576136;19;20014;-80
2023/04/23 12:27:01;;;;;;;6.30;3.15;;;17.90;93.70;;;;;;7583098;19;20014;-78
2023/04/23 12:29:33;;;;;;;;;;;17.90;92.80;;;;;;7569098;19;20006;-79
2023/04/23 12:32:10;;;;;;;8.68;3.30;;;17.80;91.70;;;;;;7569809;19;19934;-78
2023/04/23 12:34:52;;;;;;;6.85;3.47;;;17.70;92.70;;;;;;7562889;19;20632;-80
2023/04/23 12:37:29;;;;;;;6.78;4.13;;;17.70;91.80;;;;;;7557898;19;20010;-78
2023/04/23 12:40:06;;;;;;;5.45;3.53;;;17.80;91.10;;;;;;7555154;19;20043;-77
2023/04/23 12:42:38;;;;;;;4.28;3.22;;;17.90;91.00;;;;;;7561242;19;20018;-78
2023/04/23 12:45:10;;;;;;;4.35;3.28;;;17.90;91.60;;;;;;7579341;19;20014;-78
2023/04/23 12:47:43;;;;;;;6.95;3.88;;;18.00;92.40;;;;;;7545944;19;20018;-78
2023/04/23 12:50:15;;;;;;;5.65;3.08;;;18.60;89.80;;;;;;7561489;19;20010;-77
2023/04/23 12:52:48;;;;;;;8.25;3.83;;;18.80;87.20;;;;;;7560027;19;20022;-77
2023/04/23 12:55:20;;;;;;;4.43;3.65;;;18.70;85.50;;;;;;7571552;19;20059;-77
2023/04/23 12:57:52;;;;;;;5.28;3.88;;;18.40;86.40;;;;;;7569084;19;20426;-77
2023/04/23 13:00:25;;;;;;;5.10;4.07;;;18.40;86.90;;;;;;7550926;19;20152;-78
2023/04/23 13:02:57;;;;;;;5.90;4.13;;;18.40;86.90;;;;;;7551058;19;20025;-76
2023/04/23 13:05:30;;;;;;;7.87;4.03;;;18.30;86.70;;;;;;7557125;19;20022;-78
2023/04/23 13:08:02;;;;;;;5.00;4.07;;;18.20;83.80;;;;;;7563580;19;20022;-79
2023/04/23 13:10:35;;;;;;;4.55;3.50;;;18.10;83.80;;;;;;7578115;19;20014;-79
2023/04/23 13:13:07;;;;;;;4.13;3.45;;;18.20;85.40;;;;;;7561895;19;20893;-77
2023/04/23 13:15:41;;;;;;;4.20;3.40;;;18.30;86.20;;;;;;7539352;19;20015;-77
2023/04/23 13:18:13;;;;;;;7.10;4.00;;;18.60;85.20;;;;;;7558924;19;20017;-77